sensor_id;sensor_type;location;lat;lon;timestamp;pressure;altitude;pressure_sealevel;temperature;humidity
24045;BME280;26257;49.442;8.422;2023-01-28T00:01:12;101246.91;;;6.54;100.00
24045;BME280;26257;49.442;8.422;2023-01-28T00:03:38;101248.03;;;6.61;100.00
24045;BME280;26257;49.442;8.422;2023-01-28T00:06:07;101251.06;;;6.71;100.00
24045;BME280;26257;49.442;8.422;2023-01-28T00:08:33;101257.75;;;6.63;100.00
24045;BME280;26257;49.442;8.422;2023-01-28T00:10:59;101255.34;;;6.69;100.00
24045;BME280;26257;49.442;8.422;2023-01-28T00:13:26;101250.59;;;6.59;100.00
24045;BME280;26257;49.442;8.422;2023-01-28T00:15:59;101245.09;;;6.53;100.00
24045;BME280;26257;49.442;8.422;2023-01-28T00:18:26;101249.56;;;6.56;100.00
24045;BME280;26257;49.442;8.422;2023-01-28T00:21:11;101243.28;;;6.52;100.00
24045;BME280;26257;49.442;8.422;2023-01-28T00:23:39;101243.41;;;6.55;100.00
24045;BME280;26257;49.442;8.422;2023-01-28T00:26:09;101239.66;;;6.71;100.00
24045;BME280;26257;49.442;8.422;2023-01-28T00:28:35;101245.34;;;6.59;100.00
24045;BME280;26257;49.442;8.422;2023-01-28T00:31:20;101248.34;;;6.46;100.00
24045;BME280;26257;49.442;8.422;2023-01-28T00:33:48;101243.28;;;6.52;100.00
24045;BME280;26257;49.442;8.422;2023-01-28T00:36:14;101242.13;;;6.66;100.00
24045;BME280;26257;49.442;8.422;2023-01-28T00:38:41;101237.41;;;6.58;100.00
24045;BME280;26257;49.442;8.422;2023-01-28T00:41:10;101239.25;;;6.38;100.00
24045;BME280;26257;49.442;8.422;2023-01-28T00:43:36;101239.59;;;6.47;100.00
24045;BME280;26257;49.442;8.422;2023-01-28T00:46:04;101232.81;;;6.52;100.00
24045;BME280;26257;49.442;8.422;2023-01-28T00:48:35;101236.50;;;6.57;100.00
24045;BME280;26257;49.442;8.422;2023-01-28T00:51:01;101234.59;;;6.53;100.00
24045;BME280;26257;49.442;8.422;2023-01-28T00:53:27;101239.59;;;6.47;100.00
24045;BME280;26257;49.442;8.422;2023-01-28T00:55:52;101240.09;;;6.59;100.00
24045;BME280;26257;49.442;8.422;2023-01-28T00:58:18;101239.00;;;6.32;100.00
24045;BME280;26257;49.442;8.422;2023-01-28T01:00:44;101235.38;;;6.51;100.00
24045;BME280;26257;49.442;8.422;2023-01-28T01:03:10;101240.47;;;6.46;100.00
24045;BME280;26257;49.442;8.422;2023-01-28T01:05:35;101235.63;;;6.57;100.00
24045;BME280;26257;49.442;8.422;2023-01-28T01:08:01;101246.66;;;6.05;100.00
24045;BME280;26257;49.442;8.422;2023-01-28T01:10:27;101248.13;;;6.19;100.00
24045;BME280;26257;49.442;8.422;2023-01-28T01:12:52;101253.81;;;6.30;100.00
24045;BME280;26257;49.442;8.422;2023-01-28T01:15:18;101250.94;;;6.24;100.00
24045;BME280;26257;49.442;8.422;2023-01-28T01:17:47;101247.34;;;6.22;100.00
24045;BME280;26257;49.442;8.422;2023-01-28T01:20:19;101250.59;;;6.37;100.00
24045;BME280;26257;49.442;8.422;2023-01-28T01:22:45;101238.78;;;6.48;100.00
24045;BME280;26257;49.442;8.422;2023-01-28T01:25:12;101250.53;;;6.36;100.00
24045;BME280;26257;49.442;8.422;2023-01-28T01:27:38;101258.28;;;6.33;100.00
24045;BME280;26257;49.442;8.422;2023-01-28T01:30:04;101259.66;;;6.45;100.00
24045;BME280;26257;49.442;8.422;2023-01-28T01:32:30;101253.94;;;6.33;100.00
24045;BME280;26257;49.442;8.422;2023-01-28T01:34:57;101259.22;;;6.35;100.00
24045;BME280;26257;49.442;8.422;2023-01-28T01:37:22;101255.13;;;6.41;100.00
24045;BME280;26257;49.442;8.422;2023-01-28T01:39:47;101263.09;;;6.22;100.00
24045;BME280;26257;49.442;8.422;2023-01-28T01:42:13;101246.88;;;6.32;100.00
24045;BME280;26257;49.442;8.422;2023-01-28T01:45:10;101256.94;;;6.21;100.00
24045;BME280;26257;49.442;8.422;2023-01-28T01:48:10;101249.75;;;6.38;100.00
24045;BME280;26257;49.442;8.422;2023-01-28T01:50:42;101257.75;;;6.41;100.00
24045;BME280;26257;49.442;8.422;2023-01-28T01:53:13;101246.53;;;6.45;100.00
24045;BME280;26257;49.442;8.422;2023-01-28T01:55:43;101249.63;;;6.35;100.00
24045;BME280;26257;49.442;8.422;2023-01-28T01:58:14;101247.69;;;6.31;100.00
24045;BME280;26257;49.442;8.422;2023-01-28T02:00:41;101256.84;;;6.41;100.00
24045;BME280;26257;49.442;8.422;2023-01-28T02:03:08;101261.69;;;6.30;100.00
24045;BME280;26257;49.442;8.422;2023-01-28T02:05:34;101261.16;;;6.18;100.00
24045;BME280;26257;49.442;8.422;2023-01-28T02:08:00;101258.88;;;6.05;100.00
24045;BME280;26257;49.442;8.422;2023-01-28T02:10:59;101257.47;;;6.13;100.00
24045;BME280;26257;49.442;8.422;2023-01-28T02:13:28;101257.69;;;6.17;100.00
24045;BME280;26257;49.442;8.422;2023-01-28T02:15:58;101254.16;;;6.17;100.00
24045;BME280;26257;49.442;8.422;2023-01-28T02:18:25;101255.91;;;6.18;100.00
24045;BME280;26257;49.442;8.422;2023-01-28T02:21:15;101250.88;;;6.22;100.00
24045;BME280;26257;49.442;8.422;2023-01-28T02:24:29;101258.75;;;6.22;100.00
24045;BME280;26257;49.442;8.422;2023-01-28T02:27:25;101266.66;;;6.24;100.00
24045;BME280;26257;49.442;8.422;2023-01-28T02:30:10;101259.78;;;6.05;100.00
24045;BME280;26257;49.442;8.422;2023-01-28T02:32:41;101266.06;;;6.09;100.00
24045;BME280;26257;49.442;8.422;2023-01-28T02:35:19;101259.78;;;5.85;100.00
24045;BME280;26257;49.442;8.422;2023-01-28T02:38:07;101257.31;;;5.88;100.00
24045;BME280;26257;49.442;8.422;2023-01-28T02:40:37;101257.25;;;6.07;100.00
24045;BME280;26257;49.442;8.422;2023-01-28T02:43:40;101256.34;;;5.86;100.00
24045;BME280;26257;49.442;8.422;2023-01-28T02:46:16;101253.16;;;5.93;100.00
24045;BME280;26257;49.442;8.422;2023-01-28T02:49:02;101248.28;;;6.02;100.00
24045;BME280;26257;49.442;8.422;2023-01-28T02:52:01;101252.22;;;5.72;100.00
24045;BME280;26257;49.442;8.422;2023-01-28T02:55:05;101248.34;;;6.03;100.00
24045;BME280;26257;49.442;8.422;2023-01-28T03:03:15;101256.06;;;5.80;100.00
24045;BME280;26257;49.442;8.422;2023-01-28T03:05:50;101257.31;;;5.88;100.00
24045;BME280;26257;49.442;8.422;2023-01-28T03:08:53;101251.59;;;5.98;100.00
24045;BME280;26257;49.442;8.422;2023-01-28T03:11:41;101261.28;;;5.99;100.00
24045;BME280;26257;49.442;8.422;2023-01-28T03:14:27;101257.84;;;5.81;100.00
24045;BME280;26257;49.442;8.422;2023-01-28T03:17:43;101266.28;;;5.74;100.00
24045;BME280;26257;49.442;8.422;2023-01-28T03:21:03;101270.47;;;5.89;100.00
24045;BME280;26257;49.442;8.422;2023-01-28T03:24:13;101268.56;;;5.85;100.00
24045;BME280;26257;49.442;8.422;2023-01-28T03:27:10;101268.34;;;5.81;100.00
24045;BME280;26257;49.442;8.422;2023-01-28T03:30:01;101278.69;;;5.97;100.00
24045;BME280;26257;49.442;8.422;2023-01-28T03:32:49;101271.69;;;5.97;100.00
24045;BME280;26257;49.442;8.422;2023-01-28T03:35:35;101276.06;;;5.97;100.00
24045;BME280;26257;49.442;8.422;2023-01-28T03:38:19;101275.03;;;5.93;100.00
24045;BME280;26257;49.442;8.422;2023-01-28T03:40:54;101268.88;;;5.93;100.00
24045;BME280;26257;49.442;8.422;2023-01-28T03:43:20;101281.41;;;6.00;100.00
24045;BME280;26257;49.442;8.422;2023-01-28T03:45:47;101279.63;;;5.99;100.00
24045;BME280;26257;49.442;8.422;2023-01-28T03:48:19;101285.19;;;5.86;100.00
24045;BME280;26257;49.442;8.422;2023-01-28T03:50:46;101289.31;;;5.81;100.00
24045;BME280;26257;49.442;8.422;2023-01-28T03:53:13;101296.63;;;6.08;100.00
24045;BME280;26257;49.442;8.422;2023-01-28T03:55:40;101305.47;;;5.90;100.00
24045;BME280;26257;49.442;8.422;2023-01-28T03:58:06;101312.06;;;5.82;100.00
24045;BME280;26257;49.442;8.422;2023-01-28T04:00:31;101314.03;;;5.86;100.00
24045;BME280;26257;49.442;8.422;2023-01-28T04:02:57;101311.94;;;5.98;100.00
24045;BME280;26257;49.442;8.422;2023-01-28T04:05:23;101307.53;;;5.97;100.00
24045;BME280;26257;49.442;8.422;2023-01-28T04:07:50;101310.97;;;5.96;100.00
24045;BME280;26257;49.442;8.422;2023-01-28T04:10:18;101315.50;;;6.00;100.00
24045;BME280;26257;49.442;8.422;2023-01-28T04:12:43;101306.09;;;6.05;100.00
24045;BME280;26257;49.442;8.422;2023-01-28T04:15:09;101311.25;;;6.02;100.00
24045;BME280;26257;49.442;8.422;2023-01-28T04:17:46;101312.06;;;6.01;100.00
24045;BME280;26257;49.442;8.422;2023-01-28T04:32:48;101326.75;;;5.19;100.00
24045;BME280;26257;49.442;8.422;2023-01-28T04:35:18;101314.09;;;5.47;100.00
24045;BME280;26257;49.442;8.422;2023-01-28T04:37:44;101314.63;;;5.59;100.00
24045;BME280;26257;49.442;8.422;2023-01-28T04:40:11;101320.25;;;5.69;100.00
24045;BME280;26257;49.442;8.422;2023-01-28T04:42:37;101319.84;;;5.79;100.00
24045;BME280;26257;49.442;8.422;2023-01-28T04:45:02;101314.44;;;5.76;100.00
24045;BME280;26257;49.442;8.422;2023-01-28T04:47:28;101314.13;;;5.68;100.00
24045;BME280;26257;49.442;8.422;2023-01-28T04:49:53;101314.13;;;5.68;100.00
24045;BME280;26257;49.442;8.422;2023-01-28T04:52:19;101326.47;;;5.71;100.00
24045;BME280;26257;49.442;8.422;2023-01-28T04:54:44;101318.72;;;5.74;100.00
24045;BME280;26257;49.442;8.422;2023-01-28T04:57:10;101327.28;;;5.70;100.00
24045;BME280;26257;49.442;8.422;2023-01-28T04:59:36;101326.44;;;5.90;100.00
24045;BME280;26257;49.442;8.422;2023-01-28T05:02:01;101333.75;;;5.78;100.00
24045;BME280;26257;49.442;8.422;2023-01-28T05:04:26;101326.63;;;5.54;100.00
24045;BME280;26257;49.442;8.422;2023-01-28T05:06:52;101327.91;;;5.64;100.00
24045;BME280;26257;49.442;8.422;2023-01-28T05:09:17;101323.00;;;5.91;100.00
24045;BME280;26257;49.442;8.422;2023-01-28T05:11:43;101331.31;;;5.82;100.00
24045;BME280;26257;49.442;8.422;2023-01-28T05:14:08;101331.81;;;5.93;100.00
24045;BME280;26257;49.442;8.422;2023-01-28T05:16:33;101323.84;;;5.71;100.00
24045;BME280;26257;49.442;8.422;2023-01-28T05:19:00;101322.84;;;5.69;100.00
24045;BME280;26257;49.442;8.422;2023-01-28T05:21:26;101330.03;;;5.73;100.00
24045;BME280;26257;49.442;8.422;2023-01-28T05:23:52;101326.69;;;5.56;100.00
24045;BME280;26257;49.442;8.422;2023-01-28T05:26:17;101328.06;;;5.67;100.00
24045;BME280;26257;49.442;8.422;2023-01-28T05:28:42;101334.09;;;5.66;100.00
24045;BME280;26257;49.442;8.422;2023-01-28T05:31:09;101342.50;;;5.57;100.00
24045;BME280;26257;49.442;8.422;2023-01-28T05:33:35;101341.44;;;5.73;100.00
24045;BME280;26257;49.442;8.422;2023-01-28T05:36:01;101345.75;;;5.92;100.00
24045;BME280;26257;49.442;8.422;2023-01-28T05:38:26;101344.25;;;5.97;100.00
24045;BME280;26257;49.442;8.422;2023-01-28T05:40:52;101352.38;;;5.84;100.00
24045;BME280;26257;49.442;8.422;2023-01-28T05:43:17;101356.53;;;5.79;100.00
24045;BME280;26257;49.442;8.422;2023-01-28T05:45:43;101351.63;;;5.67;100.00
24045;BME280;26257;49.442;8.422;2023-01-28T05:48:08;101352.88;;;5.56;100.00
24045;BME280;26257;49.442;8.422;2023-01-28T05:50:34;101363.03;;;5.68;100.00
24045;BME280;26257;49.442;8.422;2023-01-28T05:52:59;101350.94;;;5.71;100.00
24045;BME280;26257;49.442;8.422;2023-01-28T05:55:25;101363.84;;;5.67;100.00
24045;BME280;26257;49.442;8.422;2023-01-28T05:57:50;101367.78;;;5.57;100.00
24045;BME280;26257;49.442;8.422;2023-01-28T06:00:16;101369.50;;;5.76;100.00
24045;BME280;26257;49.442;8.422;2023-01-28T06:02:42;101360.94;;;5.60;100.00
24045;BME280;26257;49.442;8.422;2023-01-28T06:05:08;101362.47;;;5.55;100.00
24045;BME280;26257;49.442;8.422;2023-01-28T06:07:33;101374.88;;;5.79;100.00
24045;BME280;26257;49.442;8.422;2023-01-28T06:09:59;101378.38;;;5.79;100.00
24045;BME280;26257;49.442;8.422;2023-01-28T06:12:24;101370.66;;;5.82;100.00
24045;BME280;26257;49.442;8.422;2023-01-28T06:14:50;101373.75;;;5.74;100.00
24045;BME280;26257;49.442;8.422;2023-01-28T06:17:15;101380.13;;;5.59;100.00
24045;BME280;26257;49.442;8.422;2023-01-28T06:19:41;101381.00;;;5.79;100.00
24045;BME280;26257;49.442;8.422;2023-01-28T06:22:06;101384.00;;;5.87;100.00
24045;BME280;26257;49.442;8.422;2023-01-28T06:24:32;101392.25;;;5.77;100.00
24045;BME280;26257;49.442;8.422;2023-01-28T06:26:57;101399.88;;;5.90;100.00
24045;BME280;26257;49.442;8.422;2023-01-28T06:29:23;101399.03;;;5.91;100.00
24045;BME280;26257;49.442;8.422;2023-01-28T06:31:48;101400.97;;;5.76;100.00
24045;BME280;26257;49.442;8.422;2023-01-28T06:34:15;101401.13;;;5.79;100.00
24045;BME280;26257;49.442;8.422;2023-01-28T06:36:40;101401.72;;;5.73;100.00
24045;BME280;26257;49.442;8.422;2023-01-28T06:39:06;101406.34;;;5.79;100.00
24045;BME280;26257;49.442;8.422;2023-01-28T06:41:31;101411.78;;;5.83;100.00
24045;BME280;26257;49.442;8.422;2023-01-28T06:43:57;101408.13;;;5.80;100.00
24045;BME280;26257;49.442;8.422;2023-01-28T06:46:22;101421.81;;;5.73;100.00
24045;BME280;26257;49.442;8.422;2023-01-28T06:48:49;101417.72;;;5.79;100.00
24045;BME280;26257;49.442;8.422;2023-01-28T06:51:14;101422.50;;;5.88;100.00
24045;BME280;26257;49.442;8.422;2023-01-28T06:53:40;101437.94;;;5.82;100.00
24045;BME280;26257;49.442;8.422;2023-01-28T06:56:05;101435.59;;;5.69;100.00
24045;BME280;26257;49.442;8.422;2023-01-28T06:58:31;101434.47;;;5.63;100.00
24045;BME280;26257;49.442;8.422;2023-01-28T07:00:56;101430.75;;;5.58;100.00
24045;BME280;26257;49.442;8.422;2023-01-28T07:03:22;101437.25;;;5.67;100.00
24045;BME280;26257;49.442;8.422;2023-01-28T07:05:47;101434.22;;;5.77;100.00
24045;BME280;26257;49.442;8.422;2023-01-28T07:08:13;101435.47;;;5.66;100.00
24045;BME280;26257;49.442;8.422;2023-01-28T07:10:38;101435.25;;;5.80;100.00
24045;BME280;26257;49.442;8.422;2023-01-28T07:13:03;101430.91;;;5.81;100.00
24045;BME280;26257;49.442;8.422;2023-01-28T07:15:29;101436.34;;;5.66;100.00
24045;BME280;26257;49.442;8.422;2023-01-28T07:17:54;101444.00;;;5.61;100.00
24045;BME280;26257;49.442;8.422;2023-01-28T07:20:20;101443.19;;;5.63;100.00
24045;BME280;26257;49.442;8.422;2023-01-28T07:22:46;101443.47;;;5.49;100.00
24045;BME280;26257;49.442;8.422;2023-01-28T07:25:13;101446.72;;;5.63;100.00
24045;BME280;26257;49.442;8.422;2023-01-28T07:27:45;101434.63;;;5.67;100.00
24045;BME280;26257;49.442;8.422;2023-01-28T07:30:10;101450.06;;;5.60;100.00
24045;BME280;26257;49.442;8.422;2023-01-28T07:32:36;101452.97;;;5.67;100.00
24045;BME280;26257;49.442;8.422;2023-01-28T07:35:01;101444.03;;;5.81;100.00
24045;BME280;26257;49.442;8.422;2023-01-28T07:37:27;101444.25;;;5.85;100.00
24045;BME280;26257;49.442;8.422;2023-01-28T07:39:52;101443.34;;;5.85;100.00
24045;BME280;26257;49.442;8.422;2023-01-28T07:42:17;101451.25;;;5.67;100.00
24045;BME280;26257;49.442;8.422;2023-01-28T07:44:43;101445.59;;;5.77;100.00
24045;BME280;26257;49.442;8.422;2023-01-28T07:47:09;101444.72;;;5.96;100.00
24045;BME280;26257;49.442;8.422;2023-01-28T07:49:34;101453.34;;;5.93;100.00
24045;BME280;26257;49.442;8.422;2023-01-28T07:52:00;101456.13;;;5.96;100.00
24045;BME280;26257;49.442;8.422;2023-01-28T07:54:25;101451.50;;;5.91;100.00
24045;BME280;26257;49.442;8.422;2023-01-28T07:56:50;101461.03;;;5.89;100.00
24045;BME280;26257;49.442;8.422;2023-01-28T07:59:16;101459.50;;;6.34;100.00
24045;BME280;26257;49.442;8.422;2023-01-28T08:01:41;101460.03;;;6.25;100.00
24045;BME280;26257;49.442;8.422;2023-01-28T08:04:06;101466.59;;;6.36;100.00
24045;BME280;26257;49.442;8.422;2023-01-28T08:06:32;101463.03;;;6.34;100.00
24045;BME280;26257;49.442;8.422;2023-01-28T08:09:03;101463.44;;;6.43;100.00
24045;BME280;26257;49.442;8.422;2023-01-28T08:11:31;101466.22;;;6.27;100.00
24045;BME280;26257;49.442;8.422;2023-01-28T08:13:56;101473.00;;;6.22;100.00
24045;BME280;26257;49.442;8.422;2023-01-28T08:16:22;101471.97;;;6.18;100.00
24045;BME280;26257;49.442;8.422;2023-01-28T08:18:47;101472.84;;;6.19;100.00
24045;BME280;26257;49.442;8.422;2023-01-28T08:21:13;101467.03;;;6.26;100.00
24045;BME280;26257;49.442;8.422;2023-01-28T08:23:38;101467.47;;;6.16;100.00
24045;BME280;26257;49.442;8.422;2023-01-28T08:26:05;101473.00;;;6.22;100.00
24045;BME280;26257;49.442;8.422;2023-01-28T08:28:31;101472.47;;;6.10;100.00
24045;BME280;26257;49.442;8.422;2023-01-28T08:30:59;101475.94;;;6.30;100.00
24045;BME280;26257;49.442;8.422;2023-01-28T08:33:25;101485.97;;;6.38;100.00
24045;BME280;26257;49.442;8.422;2023-01-28T08:35:51;101483.84;;;6.10;100.00
24045;BME280;26257;49.442;8.422;2023-01-28T08:38:16;101491.66;;;6.09;100.00
24045;BME280;26257;49.442;8.422;2023-01-28T08:40:42;101492.19;;;6.21;100.00
24045;BME280;26257;49.442;8.422;2023-01-28T08:43:08;101484.53;;;6.26;100.00
24045;BME280;26257;49.442;8.422;2023-01-28T08:45:33;101482.91;;;6.48;100.00
24045;BME280;26257;49.442;8.422;2023-01-28T08:48:02;101479.38;;;6.68;100.00
24045;BME280;26257;49.442;8.422;2023-01-28T08:50:30;101486.34;;;6.47;100.00
24045;BME280;26257;49.442;8.422;2023-01-28T08:53:02;101491.44;;;6.44;100.00
24045;BME280;26257;49.442;8.422;2023-01-28T08:55:32;101490.78;;;6.29;100.00
24045;BME280;26257;49.442;8.422;2023-01-28T08:58:01;101493.56;;;6.32;100.00
24045;BME280;26257;49.442;8.422;2023-01-28T09:00:27;101496.03;;;6.29;100.00
24045;BME280;26257;49.442;8.422;2023-01-28T09:02:53;101489.34;;;6.36;100.00
24045;BME280;26257;49.442;8.422;2023-01-28T09:05:19;101495.25;;;6.51;100.00
24045;BME280;26257;49.442;8.422;2023-01-28T09:07:45;101485.50;;;6.28;100.00
24045;BME280;26257;49.442;8.422;2023-01-28T09:10:11;101488.91;;;6.46;100.00
24045;BME280;26257;49.442;8.422;2023-01-28T09:12:37;101497.28;;;6.37;100.00
24045;BME280;26257;49.442;8.422;2023-01-28T09:15:03;101493.91;;;6.60;100.00
24045;BME280;26257;49.442;8.422;2023-01-28T09:17:29;101490.47;;;6.61;100.00
24045;BME280;26257;49.442;8.422;2023-01-28T09:19:54;101496.22;;;6.73;99.68
24045;BME280;26257;49.442;8.422;2023-01-28T09:22:20;101493.75;;;6.57;99.49
24045;BME280;26257;49.442;8.422;2023-01-28T09:24:46;101495.94;;;6.67;98.75
24045;BME280;26257;49.442;8.422;2023-01-28T09:27:11;101503.84;;;6.88;96.83
24045;BME280;26257;49.442;8.422;2023-01-28T09:29:37;101505.28;;;7.02;95.61
24045;BME280;26257;49.442;8.422;2023-01-28T09:32:06;101505.72;;;6.91;96.28
24045;BME280;26257;49.442;8.422;2023-01-28T09:34:35;101505.19;;;6.78;98.06
24045;BME280;26257;49.442;8.422;2023-01-28T09:37:00;101509.03;;;6.87;96.47
24045;BME280;26257;49.442;8.422;2023-01-28T09:39:26;101507.03;;;6.81;95.85
24045;BME280;26257;49.442;8.422;2023-01-28T09:42:03;101515.66;;;6.99;95.14
24045;BME280;26257;49.442;8.422;2023-01-28T09:47:33;101521.69;;;6.97;94.70
24045;BME280;26257;49.442;8.422;2023-01-28T09:50:05;101524.75;;;7.28;93.61
24045;BME280;26257;49.442;8.422;2023-01-28T09:52:35;101520.69;;;7.36;91.81
24045;BME280;26257;49.442;8.422;2023-01-28T09:55:23;101523.13;;;7.54;91.23
24045;BME280;26257;49.442;8.422;2023-01-28T09:57:53;101524.38;;;7.41;89.14
24045;BME280;26257;49.442;8.422;2023-01-28T10:00:34;101511.56;;;7.71;88.64
24045;BME280;26257;49.442;8.422;2023-01-28T10:16:42;101513.06;;;8.10;84.21
24045;BME280;26257;49.442;8.422;2023-01-28T10:35:41;101521.53;;;7.35;92.92
24045;BME280;26257;49.442;8.422;2023-01-28T10:38:13;101512.09;;;7.40;89.85
24045;BME280;26257;49.442;8.422;2023-01-28T10:40:47;101520.22;;;7.68;88.36
24045;BME280;26257;49.442;8.422;2023-01-28T10:43:20;101520.72;;;7.58;87.32
24045;BME280;26257;49.442;8.422;2023-01-28T10:51:38;101519.13;;;7.19;86.94
24045;BME280;26257;49.442;8.422;2023-01-28T10:54:27;101520.34;;;7.49;86.14
24045;BME280;26257;49.442;8.422;2023-01-28T10:57:12;101523.19;;;7.33;87.32
24045;BME280;26257;49.442;8.422;2023-01-28T10:59:55;101533.69;;;7.33;86.26
24045;BME280;26257;49.442;8.422;2023-01-28T11:02:28;101530.97;;;7.09;86.98
24045;BME280;26257;49.442;8.422;2023-01-28T11:07:26;101533.09;;;7.18;87.60
24045;BME280;26257;49.442;8.422;2023-01-28T11:09:52;101538.44;;;7.19;87.61
24045;BME280;26257;49.442;8.422;2023-01-28T11:12:21;101541.06;;;7.19;87.42
24045;BME280;26257;49.442;8.422;2023-01-28T11:14:58;101541.38;;;7.27;86.43
24045;BME280;26257;49.442;8.422;2023-01-28T11:17:26;101535.16;;;7.04;86.81
24045;BME280;26257;49.442;8.422;2023-01-28T11:19:54;101533.19;;;7.19;85.28
24045;BME280;26257;49.442;8.422;2023-01-28T11:22:26;101532.53;;;7.47;84.61
24045;BME280;26257;49.442;8.422;2023-01-28T11:24:55;101544.00;;;7.27;85.16
24045;BME280;26257;49.442;8.422;2023-01-28T11:27:26;101540.03;;;7.16;85.00
24045;BME280;26257;49.442;8.422;2023-01-28T11:29:56;101529.66;;;7.19;85.42
24045;BME280;26257;49.442;8.422;2023-01-28T11:32:24;101542.06;;;7.23;86.05
24045;BME280;26257;49.442;8.422;2023-01-28T11:34:54;101537.56;;;7.20;85.46
24045;BME280;26257;49.442;8.422;2023-01-28T11:37:25;101537.72;;;7.03;84.84
24045;BME280;26257;49.442;8.422;2023-01-28T11:40:23;101530.38;;;7.37;84.16
24045;BME280;26257;49.442;8.422;2023-01-28T11:42:53;101548.97;;;7.41;82.67
24045;BME280;26257;49.442;8.422;2023-01-28T11:45:34;101537.66;;;7.44;82.35
24045;BME280;26257;49.442;8.422;2023-01-28T11:50:38;101534.34;;;7.48;81.67
24045;BME280;26257;49.442;8.422;2023-01-28T11:53:21;101529.03;;;7.69;80.59
24045;BME280;26257;49.442;8.422;2023-01-28T11:56:16;101515.78;;;7.67;80.22
24045;BME280;26257;49.442;8.422;2023-01-28T11:59:30;101522.00;;;7.47;79.78
24045;BME280;26257;49.442;8.422;2023-01-28T12:07:32;101516.59;;;7.88;76.37
24045;BME280;26257;49.442;8.422;2023-01-28T12:18:41;101502.50;;;7.86;73.29
24045;BME280;26257;49.442;8.422;2023-01-28T12:21:11;101505.69;;;7.78;74.74
24045;BME280;26257;49.442;8.422;2023-01-28T12:29:51;101504.53;;;7.93;72.91
24045;BME280;26257;49.442;8.422;2023-01-28T12:45:42;101495.59;;;7.66;69.17
24045;BME280;26257;49.442;8.422;2023-01-28T12:48:19;101491.88;;;7.83;68.70
24045;BME280;26257;49.442;8.422;2023-01-28T12:50:57;101494.53;;;7.61;69.19
24045;BME280;26257;49.442;8.422;2023-01-28T12:56:10;101501.22;;;6.88;68.08
24045;BME280;26257;49.442;8.422;2023-01-28T13:01:56;101498.78;;;6.93;71.26
24045;BME280;26257;49.442;8.422;2023-01-28T13:04:35;101492.25;;;7.04;70.17
24045;BME280;26257;49.442;8.422;2023-01-28T13:09:36;101490.00;;;6.71;69.01
24045;BME280;26257;49.442;8.422;2023-01-28T13:12:04;101504.94;;;6.72;69.96
24045;BME280;26257;49.442;8.422;2023-01-28T13:14:31;101500.31;;;6.46;70.91
24045;BME280;26257;49.442;8.422;2023-01-28T13:17:11;101499.47;;;6.47;71.35
24045;BME280;26257;49.442;8.422;2023-01-28T13:19:40;101489.50;;;6.59;71.38
24045;BME280;26257;49.442;8.422;2023-01-28T13:22:12;101491.22;;;6.38;70.82
24045;BME280;26257;49.442;8.422;2023-01-28T13:24:48;101494.34;;;6.71;70.79
24045;BME280;26257;49.442;8.422;2023-01-28T13:27:22;101504.41;;;6.81;70.80
24045;BME280;26257;49.442;8.422;2023-01-28T13:29:48;101499.38;;;6.86;69.81
24045;BME280;26257;49.442;8.422;2023-01-28T13:32:30;101508.13;;;6.65;69.98
24045;BME280;26257;49.442;8.422;2023-01-28T13:34:59;101503.09;;;6.30;71.83
24045;BME280;26257;49.442;8.422;2023-01-28T13:39:59;101508.06;;;6.84;69.52
24045;BME280;26257;49.442;8.422;2023-01-28T13:42:28;101509.66;;;7.02;68.98
24045;BME280;26257;49.442;8.422;2023-01-28T13:44:55;101514.81;;;6.99;69.33
24045;BME280;26257;49.442;8.422;2023-01-28T13:47:29;101517.34;;;6.56;69.88
24045;BME280;26257;49.442;8.422;2023-01-28T13:49:58;101518.28;;;6.18;72.39
24045;BME280;26257;49.442;8.422;2023-01-28T13:52:29;101525.00;;;6.31;72.28
24045;BME280;26257;49.442;8.422;2023-01-28T14:00:57;101543.88;;;6.43;72.16
24045;BME280;26257;49.442;8.422;2023-01-28T14:08:55;101556.09;;;6.42;74.24
24045;BME280;26257;49.442;8.422;2023-01-28T14:12:04;101561.22;;;6.39;74.31
24045;BME280;26257;49.442;8.422;2023-01-28T14:17:11;101562.31;;;6.44;74.89
24045;BME280;26257;49.442;8.422;2023-01-28T14:19:40;101563.59;;;6.33;75.93
24045;BME280;26257;49.442;8.422;2023-01-28T14:22:09;101565.94;;;6.46;76.19
24045;BME280;26257;49.442;8.422;2023-01-28T14:24:39;101579.72;;;6.42;76.16
24045;BME280;26257;49.442;8.422;2023-01-28T14:27:11;101578.91;;;6.43;77.03
24045;BME280;26257;49.442;8.422;2023-01-28T14:32:28;101581.88;;;6.51;77.67
24045;BME280;26257;49.442;8.422;2023-01-28T14:34:56;101573.25;;;6.34;77.75
24045;BME280;26257;49.442;8.422;2023-01-28T14:37:27;101576.72;;;6.33;79.21
24045;BME280;26257;49.442;8.422;2023-01-28T14:39:59;101584.66;;;6.35;78.79
24045;BME280;26257;49.442;8.422;2023-01-28T14:42:31;101588.16;;;6.16;79.82
24045;BME280;26257;49.442;8.422;2023-01-28T14:45:24;101589.00;;;6.15;79.52
24045;BME280;26257;49.442;8.422;2023-01-28T14:48:19;101582.06;;;5.98;80.66
24045;BME280;26257;49.442;8.422;2023-01-28T14:51:08;101585.81;;;6.03;79.81
24045;BME280;26257;49.442;8.422;2023-01-28T14:53:57;101585.25;;;5.91;80.46
24045;BME280;26257;49.442;8.422;2023-01-28T14:56:48;101585.53;;;5.97;79.96
24045;BME280;26257;49.442;8.422;2023-01-28T14:59:36;101588.44;;;6.03;80.08
24045;BME280;26257;49.442;8.422;2023-01-28T15:02:16;101589.78;;;5.95;80.16
24045;BME280;26257;49.442;8.422;2023-01-28T15:04:42;101595.59;;;5.88;80.41
24045;BME280;26257;49.442;8.422;2023-01-28T15:07:20;101601.88;;;5.91;80.85
24045;BME280;26257;49.442;8.422;2023-01-28T15:09:47;101598.88;;;5.84;81.64
24045;BME280;26257;49.442;8.422;2023-01-28T15:12:23;101612.28;;;5.72;82.44
24045;BME280;26257;49.442;8.422;2023-01-28T15:14:48;101610.13;;;5.63;82.25
24045;BME280;26257;49.442;8.422;2023-01-28T15:17:24;101602.41;;;5.49;83.07